createdAt,value
2023-02-05T00:00:07.864Z,7.00
2023-02-05T00:02:36.239Z,6.60
2023-02-05T00:05:06.827Z,6.35
2023-02-05T00:07:34.911Z,6.47
2023-02-05T00:10:03.558Z,6.88
2023-02-05T00:12:31.839Z,8.38
2023-02-05T00:15:00.009Z,6.70
2023-02-05T00:17:28.618Z,6.72
2023-02-05T00:19:56.692Z,6.95
2023-02-05T00:22:26.284Z,7.20
2023-02-05T00:24:54.232Z,6.90
2023-02-05T00:27:22.587Z,7.45
2023-02-05T00:29:50.661Z,6.38
2023-02-05T00:32:18.598Z,6.43
2023-02-05T00:34:46.918Z,6.30
2023-02-05T00:37:14.963Z,6.75
2023-02-05T00:39:44.464Z,7.10
2023-02-05T00:42:13.642Z,6.95
2023-02-05T00:44:41.732Z,7.30
2023-02-05T00:47:09.760Z,6.63
2023-02-05T00:49:37.671Z,7.00
2023-02-05T00:52:05.872Z,7.03
2023-02-05T00:54:33.987Z,7.78
2023-02-05T00:57:03.611Z,7.97
2023-02-05T00:59:31.585Z,7.80
2023-02-05T01:02:00.130Z,7.60
2023-02-05T01:04:28.146Z,7.55
2023-02-05T01:06:56.198Z,8.13
2023-02-05T01:09:24.429Z,7.07
2023-02-05T01:11:52.617Z,7.40
2023-02-05T01:14:21.977Z,7.97
2023-02-05T01:16:50.369Z,8.77
2023-02-05T01:19:18.516Z,8.05
2023-02-05T01:21:46.517Z,7.97
2023-02-05T01:24:14.592Z,8.68
2023-02-05T01:26:42.512Z,8.23
2023-02-05T01:29:10.490Z,8.55
2023-02-05T01:31:47.681Z,9.52
2023-02-05T01:34:16.260Z,8.90
2023-02-05T01:36:44.571Z,8.40
2023-02-05T01:39:12.615Z,8.55
2023-02-05T01:41:42.692Z,9.85
2023-02-05T01:44:13.120Z,8.60
2023-02-05T01:46:43.671Z,8.68
2023-02-05T01:49:16.489Z,9.50
2023-02-05T01:51:46.475Z,10.13
2023-02-05T01:54:15.972Z,9.90
2023-02-05T01:56:50.513Z,8.77
2023-02-05T01:59:21.383Z,9.77
2023-02-05T02:01:51.925Z,8.75
2023-02-05T02:04:35.713Z,9.93
2023-02-05T02:09:32.209Z,9.48
2023-02-05T02:12:00.314Z,10.43
2023-02-05T02:14:32.042Z,9.95
2023-02-05T02:17:03.873Z,9.00
2023-02-05T02:19:36.294Z,9.68
2023-02-05T02:22:24.177Z,10.02
2023-02-05T02:25:22.578Z,9.65
2023-02-05T02:27:55.663Z,9.98
2023-02-05T02:30:27.649Z,9.40
2023-02-05T02:33:05.085Z,9.55
2023-02-05T02:35:42.300Z,10.20
2023-02-05T02:38:16.959Z,10.55
2023-02-05T02:40:53.195Z,10.13
2023-02-05T02:43:31.726Z,10.43
2023-02-05T02:46:06.135Z,11.43
2023-02-05T02:48:39.083Z,10.15
2023-02-05T02:51:09.658Z,10.68
2023-02-05T02:53:41.008Z,10.43
2023-02-05T02:56:12.929Z,11.10
2023-02-05T02:59:06.220Z,11.07
2023-02-05T03:01:39.839Z,10.93
2023-02-05T03:04:12.994Z,10.68
2023-02-05T03:06:44.518Z,11.50
2023-02-05T03:09:19.289Z,11.75
2023-02-05T03:11:48.395Z,12.07
2023-02-05T03:14:25.290Z,13.10
2023-02-05T03:16:58.267Z,12.45
2023-02-05T03:19:28.270Z,11.95
2023-02-05T03:22:03.166Z,10.82
2023-02-05T03:24:36.660Z,12.25
2023-02-05T03:27:05.566Z,11.43
2023-02-05T03:29:44.654Z,12.60
2023-02-05T03:32:31.089Z,13.32
2023-02-05T03:35:10.927Z,12.45
2023-02-05T03:37:48.753Z,12.30
2023-02-05T03:40:25.700Z,12.73
2023-02-05T03:43:04.432Z,13.27
2023-02-05T03:45:47.022Z,12.82
2023-02-05T03:48:37.328Z,11.52
2023-02-05T03:51:22.793Z,11.95
2023-02-05T03:54:02.951Z,12.85
2023-02-05T03:56:38.534Z,12.45
2023-02-05T03:59:07.691Z,13.20
2023-02-05T04:01:37.412Z,13.80
2023-02-05T04:04:05.913Z,13.63
2023-02-05T04:06:33.937Z,15.73
2023-02-05T04:09:01.975Z,14.75
2023-02-05T04:11:32.929Z,14.80
2023-02-05T04:14:03.821Z,15.57
2023-02-05T04:16:32.937Z,15.20
2023-02-05T04:19:04.561Z,14.63
2023-02-05T04:21:35.818Z,16.83
2023-02-05T04:24:04.103Z,14.60
2023-02-05T04:26:32.424Z,15.27
2023-02-05T04:29:05.776Z,16.17
2023-02-05T04:31:41.050Z,16.77
2023-02-05T04:34:10.706Z,15.57
2023-02-05T04:36:39.124Z,17.65
2023-02-05T04:39:07.173Z,16.00
2023-02-05T04:41:35.225Z,15.90
2023-02-05T04:44:03.762Z,16.10
2023-02-05T04:46:32.339Z,17.15
2023-02-05T04:49:01.412Z,15.95
2023-02-05T04:51:30.950Z,16.02
2023-02-05T04:53:59.498Z,16.85
2023-02-05T04:56:29.745Z,16.02
2023-02-05T04:58:57.682Z,16.52
2023-02-05T05:01:25.827Z,16.33
2023-02-05T05:03:54.030Z,17.38
2023-02-05T05:06:22.225Z,16.08
2023-02-05T05:08:51.750Z,16.23
2023-02-05T05:11:20.733Z,15.63
2023-02-05T05:13:51.923Z,15.93
2023-02-05T05:16:20.309Z,17.52
2023-02-05T05:18:48.404Z,15.20
2023-02-05T05:21:16.500Z,15.00
2023-02-05T05:23:44.689Z,15.35
2023-02-05T05:26:14.513Z,13.70
2023-02-05T05:28:42.624Z,13.77
2023-02-05T05:31:13.802Z,11.27
2023-02-05T05:33:42.083Z,9.48
2023-02-05T05:36:10.550Z,7.80
2023-02-05T05:38:38.909Z,5.70
2023-02-05T05:41:24.464Z,4.85
2023-02-05T05:43:55.482Z,2.67
2023-02-05T05:46:26.112Z,3.35
2023-02-05T05:48:55.796Z,2.78
2023-02-05T05:51:26.002Z,2.17
2023-02-05T05:53:55.214Z,2.85
2023-02-05T05:56:23.873Z,2.65
2023-02-05T05:58:53.457Z,2.50
2023-02-05T06:01:23.002Z,2.05
2023-02-05T06:03:51.087Z,2.42
2023-02-05T06:06:19.478Z,2.10
2023-02-05T06:08:47.640Z,1.83
2023-02-05T06:11:15.771Z,2.10
2023-02-05T06:13:43.745Z,2.97
2023-02-05T06:16:13.164Z,2.10
2023-02-05T06:18:41.176Z,2.58
2023-02-05T06:21:10.723Z,2.78
2023-02-05T06:23:38.901Z,2.20
2023-02-05T06:26:07.787Z,2.20
2023-02-05T06:28:36.256Z,2.33
2023-02-05T06:31:05.280Z,2.30
2023-02-05T06:33:34.909Z,2.08
2023-02-05T06:36:03.210Z,2.67
2023-02-05T06:38:31.321Z,2.20
2023-02-05T06:40:59.541Z,2.42
2023-02-05T06:43:27.958Z,1.75
2023-02-05T06:45:56.811Z,2.63
2023-02-05T06:48:25.134Z,1.95
2023-02-05T06:50:55.063Z,2.58
2023-02-05T06:53:23.211Z,3.40
2023-02-05T06:55:51.276Z,3.08
2023-02-05T06:58:19.412Z,3.15
2023-02-05T07:00:47.449Z,1.92
2023-02-05T07:03:15.453Z,2.10
2023-02-05T07:05:43.594Z,2.58
2023-02-05T07:08:13.089Z,2.67
2023-02-05T07:10:41.229Z,1.92
2023-02-05T07:13:10.101Z,2.47
2023-02-05T07:15:38.590Z,2.65
2023-02-05T07:18:07.883Z,2.65
2023-02-05T07:20:36.063Z,2.58
2023-02-05T07:23:05.557Z,2.33
2023-02-05T07:25:37.804Z,2.08
2023-02-05T07:28:06.661Z,2.65
2023-02-05T07:30:35.176Z,2.53
2023-02-05T07:33:04.766Z,2.42
2023-02-05T07:35:35.344Z,2.92
2023-02-05T07:38:04.114Z,2.30
2023-02-05T07:40:32.538Z,3.03
2023-02-05T07:43:02.189Z,2.88
2023-02-05T07:45:30.666Z,4.55
2023-02-05T07:47:58.871Z,3.20
2023-02-05T07:50:26.986Z,3.13
2023-02-05T07:52:55.004Z,2.85
2023-02-05T07:55:23.758Z,3.05
2023-02-05T07:57:51.902Z,3.15
2023-02-05T08:00:25.209Z,2.65
2023-02-05T08:05:21.971Z,3.90
2023-02-05T08:07:50.600Z,2.95
2023-02-05T08:10:19.730Z,2.83
2023-02-05T08:12:47.734Z,3.22
2023-02-05T08:15:15.781Z,2.58
2023-02-05T08:17:45.308Z,2.53
2023-02-05T08:20:14.198Z,1.98
2023-02-05T08:22:45.227Z,1.80
2023-02-05T08:25:15.342Z,1.83
2023-02-05T08:27:44.341Z,2.28
2023-02-05T08:30:14.953Z,3.00
2023-02-05T08:32:42.926Z,3.05
2023-02-05T08:35:12.501Z,3.30
2023-02-05T08:37:40.792Z,2.17
2023-02-05T08:40:10.826Z,2.35
2023-02-05T08:42:39.180Z,2.50
2023-02-05T08:45:09.136Z,2.75
2023-02-05T08:47:37.532Z,2.63
2023-02-05T08:50:07.073Z,2.85
2023-02-05T08:52:36.441Z,2.78
2023-02-05T08:55:05.878Z,3.75
2023-02-05T08:57:34.551Z,2.70
2023-02-05T09:00:02.526Z,2.97
2023-02-05T09:02:32.243Z,3.13
2023-02-05T09:05:08.510Z,3.08
2023-02-05T09:07:39.856Z,2.72
2023-02-05T09:10:09.529Z,4.00
2023-02-05T09:12:37.568Z,3.08
2023-02-05T09:15:06.701Z,2.95
2023-02-05T09:17:34.724Z,3.00
2023-02-05T09:20:03.250Z,2.80
2023-02-05T09:22:33.498Z,2.40
2023-02-05T09:25:03.664Z,2.80
2023-02-05T09:27:32.051Z,2.80
2023-02-05T09:30:00.343Z,2.50
2023-02-05T09:32:28.364Z,2.38
2023-02-05T09:34:56.357Z,2.60
2023-02-05T09:37:25.080Z,3.08
2023-02-05T09:40:19.557Z,2.42
2023-02-05T09:42:49.336Z,2.28
2023-02-05T09:45:38.695Z,2.33
2023-02-05T09:48:25.002Z,3.25
2023-02-05T09:50:53.691Z,3.20
2023-02-05T09:53:25.348Z,2.78
2023-02-05T09:55:54.696Z,2.85
2023-02-05T09:58:28.571Z,3.55
2023-02-05T10:01:03.450Z,3.97
2023-02-05T10:03:38.526Z,4.38
2023-02-05T10:06:23.040Z,4.57
2023-02-05T10:09:02.815Z,5.68
2023-02-05T10:11:42.689Z,5.30
2023-02-05T10:14:24.701Z,5.68
2023-02-05T10:17:09.309Z,5.25
2023-02-05T10:19:55.156Z,3.97
2023-02-05T10:22:28.736Z,2.97
2023-02-05T10:25:34.170Z,2.40
2023-02-05T10:28:10.550Z,5.00
2023-02-05T10:30:50.398Z,5.18
2023-02-05T10:33:36.740Z,3.50
2023-02-05T10:36:08.148Z,3.30
2023-02-05T10:38:44.298Z,4.25
2023-02-05T10:41:37.302Z,4.82
2023-02-05T10:44:14.962Z,3.93
2023-02-05T10:46:51.877Z,3.03
2023-02-05T10:49:25.070Z,3.83
2023-02-05T10:51:55.027Z,5.47
2023-02-05T10:54:28.414Z,4.20
2023-02-05T10:59:30.218Z,3.60
2023-02-05T11:02:03.299Z,4.65
2023-02-05T11:04:38.917Z,4.13
2023-02-05T11:07:15.256Z,5.13
2023-02-05T11:09:45.462Z,4.78
2023-02-05T11:12:23.090Z,4.80
2023-02-05T11:14:58.842Z,4.10
2023-02-05T11:17:33.084Z,5.00
2023-02-05T11:20:05.048Z,5.18
2023-02-05T11:22:35.774Z,5.40
2023-02-05T11:25:17.364Z,6.18
2023-02-05T11:27:58.060Z,5.20
2023-02-05T11:33:27.709Z,4.38
2023-02-05T11:35:59.077Z,5.72
2023-02-05T11:38:33.757Z,5.03
2023-02-05T11:41:04.670Z,5.28
2023-02-05T11:43:35.803Z,5.88
2023-02-05T11:46:09.907Z,5.10
2023-02-05T11:48:44.868Z,5.50
2023-02-05T11:51:16.824Z,4.68
2023-02-05T11:53:53.540Z,5.70
2023-02-05T11:56:25.393Z,6.10
2023-02-05T11:59:01.528Z,5.20
2023-02-05T12:01:34.204Z,5.55
2023-02-05T12:04:15.768Z,4.40
2023-02-05T12:06:50.119Z,4.82
2023-02-05T12:09:21.760Z,5.47
2023-02-05T12:12:03.699Z,4.57
2023-02-05T12:14:43.604Z,4.57
2023-02-05T12:17:34.227Z,5.32
2023-02-05T12:20:16.780Z,5.90
2023-02-05T12:23:03.785Z,4.50
2023-02-05T12:25:37.655Z,5.38
2023-02-05T12:28:21.570Z,6.88
2023-02-05T12:31:00.540Z,6.18
2023-02-05T12:33:45.548Z,6.28
2023-02-05T12:36:30.254Z,5.63
2023-02-05T12:39:10.456Z,5.20
2023-02-05T12:41:49.157Z,4.43
2023-02-05T12:44:32.282Z,5.15
2023-02-05T12:47:14.485Z,5.68
2023-02-05T12:50:01.525Z,5.15
2023-02-05T12:52:42.690Z,4.45
2023-02-05T12:55:25.292Z,5.50
2023-02-05T12:57:57.675Z,5.25
2023-02-05T13:00:30.241Z,4.90
2023-02-05T13:03:07.632Z,5.10
2023-02-05T13:05:41.632Z,5.32
2023-02-05T13:08:17.020Z,5.43
2023-02-05T13:10:51.293Z,5.32
2023-02-05T13:13:26.229Z,4.25
2023-02-05T13:16:03.121Z,4.70
2023-02-05T13:18:36.176Z,4.65
2023-02-05T13:21:24.692Z,4.80
2023-02-05T13:24:30.876Z,5.43
2023-02-05T13:27:16.821Z,4.63
2023-02-05T13:29:51.417Z,4.68
2023-02-05T13:32:25.318Z,4.65
2023-02-05T13:34:56.560Z,4.70
2023-02-05T13:37:59.411Z,5.10
2023-02-05T13:40:56.442Z,4.63
2023-02-05T13:43:49.636Z,4.18
2023-02-05T13:47:02.226Z,5.45
2023-02-05T13:50:18.772Z,6.60
2023-02-05T13:53:24.045Z,5.45
2023-02-05T13:56:19.583Z,5.30
2023-02-05T13:58:52.078Z,6.78
2023-02-05T14:01:25.884Z,6.03
2023-02-05T14:03:58.853Z,5.38
2023-02-05T14:06:31.943Z,5.70
2023-02-05T14:09:07.985Z,5.32
2023-02-05T14:14:27.726Z,6.35
2023-02-05T14:16:57.620Z,6.28
2023-02-05T14:19:47.293Z,7.28
2023-02-05T14:22:36.142Z,5.50
2023-02-05T14:25:05.801Z,6.70
2023-02-05T14:27:55.526Z,6.68
2023-02-05T14:30:49.903Z,6.80
2023-02-05T14:33:39.786Z,5.93
2023-02-05T14:36:47.274Z,6.50
2023-02-05T14:39:30.481Z,5.97
2023-02-05T14:42:01.014Z,6.30
2023-02-05T14:44:33.711Z,6.75
2023-02-05T14:47:07.806Z,6.35
2023-02-05T14:49:43.013Z,6.40
2023-02-05T14:52:28.915Z,6.07
2023-02-05T14:55:01.711Z,6.63
2023-02-05T14:57:42.109Z,7.55
2023-02-05T15:00:30.520Z,7.05
2023-02-05T15:03:38.220Z,5.90
2023-02-05T15:06:10.581Z,6.68
2023-02-05T15:08:47.885Z,6.53
2023-02-05T15:11:24.971Z,6.28
2023-02-05T15:14:33.183Z,8.02
2023-02-05T15:17:54.070Z,5.45
2023-02-05T15:20:32.677Z,6.28
2023-02-05T15:23:35.417Z,6.38
2023-02-05T15:26:07.372Z,5.15
2023-02-05T15:28:40.645Z,7.40
2023-02-05T15:31:19.441Z,6.80
2023-02-05T15:33:55.422Z,6.47
2023-02-05T15:36:33.581Z,6.40
2023-02-05T15:39:19.708Z,6.43
2023-02-05T15:41:48.861Z,7.25
2023-02-05T15:44:27.886Z,7.63
2023-02-05T15:46:57.856Z,6.30
2023-02-05T15:49:33.584Z,6.68
2023-02-05T15:52:03.439Z,6.38
2023-02-05T15:54:35.257Z,7.18
2023-02-05T15:57:06.489Z,6.28
2023-02-05T15:59:37.235Z,5.95
2023-02-05T16:02:10.176Z,5.85
2023-02-05T16:04:40.195Z,5.65
2023-02-05T16:07:23.047Z,7.40
2023-02-05T16:09:56.087Z,5.68
2023-02-05T16:12:25.094Z,6.20
2023-02-05T16:15:04.809Z,5.35
2023-02-05T16:17:40.631Z,5.80
2023-02-05T16:20:28.228Z,6.63
2023-02-05T16:23:00.927Z,6.78
2023-02-05T16:25:41.329Z,6.68
2023-02-05T16:28:20.165Z,6.95
2023-02-05T16:30:53.560Z,4.88
2023-02-05T16:36:03.259Z,5.82
2023-02-05T16:38:35.695Z,5.25
2023-02-05T16:41:22.223Z,5.47
2023-02-05T16:43:52.804Z,5.20
2023-02-05T16:46:26.450Z,6.05
2023-02-05T16:48:57.624Z,5.50
2023-02-05T16:51:32.841Z,6.60
2023-02-05T16:54:28.222Z,6.70
2023-02-05T16:57:01.747Z,6.68
2023-02-05T16:59:34.695Z,6.07
2023-02-05T17:02:04.880Z,4.97
2023-02-05T17:04:35.590Z,7.18
2023-02-05T17:07:06.984Z,5.95
2023-02-05T17:09:38.316Z,6.22
2023-02-05T17:12:41.059Z,6.10
2023-02-05T17:15:30.716Z,5.20
2023-02-05T17:18:04.707Z,6.82
2023-02-05T17:20:34.440Z,5.95
2023-02-05T17:23:15.221Z,6.47
2023-02-05T17:25:55.541Z,6.80
2023-02-05T17:28:30.533Z,6.25
2023-02-05T17:31:03.462Z,6.43
2023-02-05T17:33:32.347Z,5.80
2023-02-05T17:36:03.444Z,7.18
2023-02-05T17:38:35.440Z,6.45
2023-02-05T17:41:22.080Z,6.07
2023-02-05T17:43:52.249Z,5.88
2023-02-05T17:46:25.011Z,5.00
2023-02-05T17:48:52.999Z,5.65
2023-02-05T17:51:23.146Z,7.70
2023-02-05T17:53:52.128Z,5.45
2023-02-05T17:56:22.532Z,6.82
2023-02-05T17:58:52.199Z,5.63
2023-02-05T18:01:22.530Z,6.35
2023-02-05T18:03:50.682Z,6.07
2023-02-05T18:06:19.957Z,5.97
2023-02-05T18:08:48.101Z,5.05
2023-02-05T18:11:16.450Z,4.93
2023-02-05T18:13:45.994Z,6.35
2023-02-05T18:16:14.201Z,6.35
2023-02-05T18:18:42.581Z,6.82
2023-02-05T18:21:11.162Z,5.70
2023-02-05T18:23:40.354Z,7.07
2023-02-05T18:26:13.490Z,6.57
2023-02-05T18:28:44.191Z,6.10
2023-02-05T18:35:04.291Z,4.93
2023-02-05T18:37:32.673Z,6.68
2023-02-05T18:40:00.807Z,5.57
2023-02-05T18:42:30.862Z,5.32
2023-02-05T18:44:59.108Z,6.35
2023-02-05T18:47:28.687Z,5.60
2023-02-05T18:49:57.558Z,4.85
2023-02-05T18:52:27.431Z,6.25
2023-02-05T18:54:55.959Z,5.80
2023-02-05T18:57:24.899Z,5.72
2023-02-05T18:59:53.906Z,6.53
2023-02-05T19:02:22.546Z,5.18
2023-02-05T19:04:55.841Z,5.20
2023-02-05T19:07:24.935Z,6.95
2023-02-05T19:09:53.175Z,7.47
2023-02-05T19:12:21.523Z,5.95
2023-02-05T19:14:50.233Z,6.25
2023-02-05T19:17:19.072Z,8.82
2023-02-05T19:19:52.071Z,6.18
2023-02-05T19:22:20.255Z,7.43
2023-02-05T19:24:48.630Z,6.95
2023-02-05T19:27:18.083Z,6.20
2023-02-05T19:29:46.304Z,5.93
2023-02-05T19:32:14.312Z,6.40
2023-02-05T19:34:43.325Z,6.93
2023-02-05T19:37:12.952Z,7.53
2023-02-05T19:39:40.983Z,6.63
2023-02-05T19:42:08.935Z,6.63
2023-02-05T19:44:37.093Z,5.53
2023-02-05T19:47:06.337Z,6.53
2023-02-05T19:49:35.704Z,5.63
2023-02-05T19:52:03.683Z,6.90
2023-02-05T19:54:33.335Z,5.82
2023-02-05T19:57:01.559Z,7.15
2023-02-05T19:59:29.953Z,5.45
2023-02-05T20:01:58.370Z,7.05
2023-02-05T20:04:28.609Z,6.13
2023-02-05T20:06:58.608Z,6.18
2023-02-05T20:09:29.042Z,6.25
2023-02-05T20:11:59.516Z,6.75
2023-02-05T20:14:29.453Z,6.57
2023-02-05T20:17:01.647Z,6.57
2023-02-05T20:19:30.271Z,6.60
2023-02-05T20:21:58.558Z,6.63
2023-02-05T20:24:28.240Z,7.60
2023-02-05T20:27:00.569Z,10.45
2023-02-05T20:29:55.510Z,7.55
2023-02-05T20:34:55.779Z,6.35
2023-02-05T20:37:26.395Z,5.85
2023-02-05T20:39:57.740Z,7.07
2023-02-05T20:42:29.847Z,5.85
2023-02-05T20:44:58.268Z,6.35
2023-02-05T20:47:26.825Z,6.50
2023-02-05T20:50:01.057Z,5.32
2023-02-05T20:52:44.129Z,5.30
2023-02-05T20:55:14.915Z,5.80
2023-02-05T20:57:46.235Z,5.72
2023-02-05T21:00:16.133Z,6.75
2023-02-05T21:02:44.899Z,5.85
2023-02-05T21:05:14.822Z,5.72
2023-02-05T21:07:44.324Z,6.53
2023-02-05T21:10:13.799Z,6.78
2023-02-05T21:12:42.547Z,5.57
2023-02-05T21:15:13.362Z,6.35
2023-02-05T21:17:43.005Z,5.82
2023-02-05T21:20:12.934Z,5.43
2023-02-05T21:22:45.520Z,6.65
2023-02-05T21:25:14.688Z,5.93
2023-02-05T21:27:47.299Z,7.93
2023-02-05T21:30:18.140Z,6.03
2023-02-05T21:32:48.166Z,5.32
2023-02-05T21:35:19.082Z,6.25
2023-02-05T21:37:48.090Z,5.15
2023-02-05T21:40:17.964Z,6.28
2023-02-05T21:42:47.578Z,5.10
2023-02-05T21:45:18.539Z,5.97
2023-02-05T21:47:48.190Z,6.43
2023-02-05T21:50:16.903Z,6.25
2023-02-05T21:52:48.993Z,6.57
2023-02-05T21:55:18.191Z,5.97
2023-02-05T21:57:47.096Z,5.75
2023-02-05T22:00:18.649Z,5.88
2023-02-05T22:02:47.531Z,6.45
2023-02-05T22:05:16.612Z,5.47
2023-02-05T22:07:46.055Z,5.82
2023-02-05T22:10:14.479Z,5.55
2023-02-05T22:12:47.425Z,5.70
2023-02-05T22:17:45.873Z,5.45
2023-02-05T22:20:15.714Z,5.75
2023-02-05T22:22:43.989Z,6.63
2023-02-05T22:25:12.986Z,6.28
2023-02-05T22:27:42.924Z,5.35
2023-02-05T22:30:11.913Z,6.45
2023-02-05T22:32:41.345Z,4.70
2023-02-05T22:35:10.040Z,5.57
2023-02-05T22:37:38.366Z,5.55
2023-02-05T22:40:07.670Z,5.05
2023-02-05T22:42:35.932Z,4.95
2023-02-05T22:45:04.626Z,5.45
2023-02-05T22:47:33.466Z,5.40
2023-02-05T22:50:03.444Z,5.18
2023-02-05T22:52:31.739Z,6.10
2023-02-05T22:54:59.812Z,5.60
2023-02-05T22:57:28.027Z,5.47
2023-02-05T22:59:57.095Z,5.57
2023-02-05T23:02:25.239Z,6.50
2023-02-05T23:04:54.287Z,6.47
2023-02-05T23:07:23.802Z,7.13
2023-02-05T23:09:51.995Z,6.15
2023-02-05T23:12:25.208Z,6.15
2023-02-05T23:14:54.363Z,7.35
2023-02-05T23:17:24.614Z,6.43
2023-02-05T23:19:53.268Z,5.00
2023-02-05T23:22:21.929Z,5.88
2023-02-05T23:24:53.744Z,5.45
2023-02-05T23:27:30.378Z,5.97
2023-02-05T23:29:58.468Z,5.50
2023-02-05T23:32:30.736Z,6.55
2023-02-05T23:35:02.581Z,4.85
2023-02-05T23:37:30.835Z,5.30
2023-02-05T23:40:00.348Z,5.45
2023-02-05T23:42:28.641Z,4.80
2023-02-05T23:44:59.434Z,6.78
2023-02-05T23:47:31.556Z,5.35
2023-02-05T23:50:00.054Z,5.38
2023-02-05T23:52:28.534Z,5.38
2023-02-05T23:54:56.831Z,6.22
2023-02-05T23:57:28.726Z,4.75
2023-02-05T23:59:59.818Z,4.53
